sensor_id;sensor_type;location;lat;lon;timestamp;pressure;altitude;pressure_sealevel;temperature;humidity
19783;BME280;10051;40.294;-3.754;2023-02-01T00:01:36;95103.44;;;4.53;65.09
19783;BME280;10051;40.294;-3.754;2023-02-01T00:04:02;95108.06;;;4.69;64.86
19783;BME280;10051;40.294;-3.754;2023-02-01T00:06:28;95115.19;;;4.62;64.74
19783;BME280;10051;40.294;-3.754;2023-02-01T00:08:54;95142.94;;;4.68;64.67
19783;BME280;10051;40.294;-3.754;2023-02-01T00:11:20;95096.34;;;4.41;65.32
19783;BME280;10051;40.294;-3.754;2023-02-01T00:13:46;95129.06;;;4.74;65.21
19783;BME280;10051;40.294;-3.754;2023-02-01T00:16:17;95054.66;;;4.23;64.82
19783;BME280;10051;40.294;-3.754;2023-02-01T00:18:47;95137.16;;;4.47;65.99
19783;BME280;10051;40.294;-3.754;2023-02-01T00:21:15;95047.97;;;3.90;65.85
19783;BME280;10051;40.294;-3.754;2023-02-01T00:23:41;95088.13;;;4.00;66.04
19783;BME280;10051;40.294;-3.754;2023-02-01T00:26:14;95139.03;;;4.40;65.75
19783;BME280;10051;40.294;-3.754;2023-02-01T00:28:40;95098.22;;;4.15;66.00
19783;BME280;10051;40.294;-3.754;2023-02-01T00:31:05;95068.38;;;3.93;65.50
19783;BME280;10051;40.294;-3.754;2023-02-01T00:33:32;95132.94;;;4.28;66.29
19783;BME280;10051;40.294;-3.754;2023-02-01T00:36:05;95104.13;;;4.04;65.56
19783;BME280;10051;40.294;-3.754;2023-02-01T00:38:33;95128.56;;;4.22;65.80
19783;BME280;10051;40.294;-3.754;2023-02-01T00:41:10;95128.88;;;4.13;66.43
19783;BME280;10051;40.294;-3.754;2023-02-01T00:43:40;95062.06;;;3.56;66.81
19783;BME280;10051;40.294;-3.754;2023-02-01T00:46:05;95076.75;;;3.44;68.43
19783;BME280;10051;40.294;-3.754;2023-02-01T00:48:31;95131.66;;;3.61;68.90
19783;BME280;10051;40.294;-3.754;2023-02-01T00:51:01;95110.72;;;3.49;69.50
19783;BME280;10051;40.294;-3.754;2023-02-01T00:53:27;95064.53;;;3.19;69.29
19783;BME280;10051;40.294;-3.754;2023-02-01T00:55:52;95125.41;;;3.69;68.21
19783;BME280;10051;40.294;-3.754;2023-02-01T00:58:18;95062.81;;;3.32;68.02
19783;BME280;10051;40.294;-3.754;2023-02-01T01:00:44;95113.56;;;3.73;67.72
19783;BME280;10051;40.294;-3.754;2023-02-01T01:03:09;95056.19;;;3.36;67.19
19783;BME280;10051;40.294;-3.754;2023-02-01T01:05:56;95121.09;;;3.81;67.45
19783;BME280;10051;40.294;-3.754;2023-02-01T01:08:22;95049.69;;;3.26;67.21
19783;BME280;10051;40.294;-3.754;2023-02-01T01:10:48;95035.16;;;3.12;67.39
19783;BME280;10051;40.294;-3.754;2023-02-01T01:13:14;95129.03;;;3.68;67.53
19783;BME280;10051;40.294;-3.754;2023-02-01T01:15:40;95123.81;;;3.68;67.13
19783;BME280;10051;40.294;-3.754;2023-02-01T01:18:07;95121.38;;;3.73;66.60
19783;BME280;10051;40.294;-3.754;2023-02-01T01:20:38;95095.03;;;3.63;66.07
19783;BME280;10051;40.294;-3.754;2023-02-01T01:23:05;95114.72;;;3.77;65.77
19783;BME280;10051;40.294;-3.754;2023-02-01T01:25:31;95060.72;;;3.47;65.92
19783;BME280;10051;40.294;-3.754;2023-02-01T01:27:57;95092.97;;;3.71;65.61
19783;BME280;10051;40.294;-3.754;2023-02-01T01:30:23;94991.03;;;3.05;65.43
19783;BME280;10051;40.294;-3.754;2023-02-01T01:32:48;95028.56;;;3.41;64.50
19783;BME280;10051;40.294;-3.754;2023-02-01T01:35:14;95026.41;;;3.32;64.64
19783;BME280;10051;40.294;-3.754;2023-02-01T01:37:40;95081.81;;;3.64;64.32
19783;BME280;10051;40.294;-3.754;2023-02-01T01:40:07;95052.34;;;3.45;64.29
19783;BME280;10051;40.294;-3.754;2023-02-01T01:42:43;95128.97;;;4.00;64.58
19783;BME280;10051;40.294;-3.754;2023-02-01T01:45:30;95059.47;;;3.56;64.23
19783;BME280;10051;40.294;-3.754;2023-02-01T01:47:58;95128.03;;;3.94;64.73
19783;BME280;10051;40.294;-3.754;2023-02-01T01:50:30;95124.03;;;3.92;64.50
19783;BME280;10051;40.294;-3.754;2023-02-01T01:52:59;95129.22;;;3.92;65.27
19783;BME280;10051;40.294;-3.754;2023-02-01T01:55:31;95102.47;;;3.84;64.81
19783;BME280;10051;40.294;-3.754;2023-02-01T01:58:03;95076.78;;;3.69;64.68
19783;BME280;10051;40.294;-3.754;2023-02-01T02:00:31;95120.09;;;3.82;65.31
19783;BME280;10051;40.294;-3.754;2023-02-01T02:03:01;95120.47;;;3.61;66.10
19783;BME280;10051;40.294;-3.754;2023-02-01T02:05:29;95120.53;;;3.47;66.64
19783;BME280;10051;40.294;-3.754;2023-02-01T02:07:58;95061.22;;;3.05;66.98
19783;BME280;10051;40.294;-3.754;2023-02-01T02:10:24;95121.53;;;3.46;66.71
19783;BME280;10051;40.294;-3.754;2023-02-01T02:13:10;95071.97;;;3.09;66.98
19783;BME280;10051;40.294;-3.754;2023-02-01T02:15:42;95015.25;;;2.60;67.17
19783;BME280;10051;40.294;-3.754;2023-02-01T02:18:19;95054.06;;;2.87;68.19
19783;BME280;10051;40.294;-3.754;2023-02-01T02:24:10;95099.66;;;3.29;69.40
19783;BME280;10051;40.294;-3.754;2023-02-01T02:44:12;95085.25;;;3.26;68.15
19783;BME280;10051;40.294;-3.754;2023-02-01T02:47:02;95048.81;;;3.01;68.04
19783;BME280;10051;40.294;-3.754;2023-02-01T02:49:54;95064.09;;;3.22;67.79
19783;BME280;10051;40.294;-3.754;2023-02-01T02:52:46;95061.03;;;3.32;66.83
19783;BME280;10051;40.294;-3.754;2023-02-01T02:55:32;95043.31;;;3.22;67.01
19783;BME280;10051;40.294;-3.754;2023-02-01T02:58:02;95054.78;;;3.40;66.60
19783;BME280;10051;40.294;-3.754;2023-02-01T03:00:48;95068.69;;;3.52;66.00
19783;BME280;10051;40.294;-3.754;2023-02-01T03:03:37;95077.00;;;3.68;65.74
19783;BME280;10051;40.294;-3.754;2023-02-01T03:06:23;95015.50;;;3.23;66.01
19783;BME280;10051;40.294;-3.754;2023-02-01T03:08:48;95074.56;;;3.73;65.10
19783;BME280;10051;40.294;-3.754;2023-02-01T03:11:20;94984.19;;;3.11;65.57
19783;BME280;10051;40.294;-3.754;2023-02-01T03:14:06;95051.91;;;3.48;65.82
19783;BME280;10051;40.294;-3.754;2023-02-01T03:16:36;94927.56;;;2.62;65.84
19783;BME280;10051;40.294;-3.754;2023-02-01T03:19:09;95064.50;;;3.51;66.66
19783;BME280;10051;40.294;-3.754;2023-02-01T03:21:44;94989.63;;;3.03;66.10
19783;BME280;10051;40.294;-3.754;2023-02-01T03:24:18;95066.56;;;3.42;66.23
19783;BME280;10051;40.294;-3.754;2023-02-01T03:26:54;95062.22;;;3.36;65.63
19783;BME280;10051;40.294;-3.754;2023-02-01T03:29:29;95043.19;;;3.36;65.52
19783;BME280;10051;40.294;-3.754;2023-02-01T03:31:56;95056.06;;;3.31;65.73
19783;BME280;10051;40.294;-3.754;2023-02-01T03:34:21;94988.59;;;2.78;66.13
19783;BME280;10051;40.294;-3.754;2023-02-01T03:37:00;95053.81;;;3.02;67.13
19783;BME280;10051;40.294;-3.754;2023-02-01T03:39:43;95030.81;;;3.06;66.11
19783;BME280;10051;40.294;-3.754;2023-02-01T03:42:24;95016.88;;;2.93;65.84
19783;BME280;10051;40.294;-3.754;2023-02-01T03:45:11;95053.13;;;3.20;66.14
19783;BME280;10051;40.294;-3.754;2023-02-01T03:47:41;95062.34;;;3.16;66.06
19783;BME280;10051;40.294;-3.754;2023-02-01T03:50:14;95000.81;;;2.71;66.94
19783;BME280;10051;40.294;-3.754;2023-02-01T03:52:47;94989.69;;;2.57;67.88
19783;BME280;10051;40.294;-3.754;2023-02-01T03:55:17;95012.09;;;2.51;68.69
19783;BME280;10051;40.294;-3.754;2023-02-01T03:57:59;94936.25;;;1.97;68.95
19783;BME280;10051;40.294;-3.754;2023-02-01T04:00:27;95060.97;;;2.68;69.48
19783;BME280;10051;40.294;-3.754;2023-02-01T04:02:53;95013.19;;;2.30;70.41
19783;BME280;10051;40.294;-3.754;2023-02-01T04:05:20;95047.28;;;2.47;70.49
19783;BME280;10051;40.294;-3.754;2023-02-01T04:07:46;95014.25;;;2.09;71.16
19783;BME280;10051;40.294;-3.754;2023-02-01T04:10:12;95057.47;;;2.42;71.75
19783;BME280;10051;40.294;-3.754;2023-02-01T04:12:38;95064.19;;;2.63;70.97
19783;BME280;10051;40.294;-3.754;2023-02-01T04:15:04;95020.91;;;2.50;69.24
19783;BME280;10051;40.294;-3.754;2023-02-01T04:17:30;95067.47;;;2.91;68.10
19783;BME280;10051;40.294;-3.754;2023-02-01T04:19:55;95045.53;;;2.80;67.82
19783;BME280;10051;40.294;-3.754;2023-02-01T04:22:21;95011.66;;;2.61;67.71
19783;BME280;10051;40.294;-3.754;2023-02-01T04:24:46;95073.13;;;2.74;69.14
19783;BME280;10051;40.294;-3.754;2023-02-01T04:27:12;95050.13;;;2.32;70.72
19783;BME280;10051;40.294;-3.754;2023-02-01T04:29:38;95071.84;;;2.45;71.22
19783;BME280;10051;40.294;-3.754;2023-02-01T04:32:05;94995.94;;;1.77;71.40
19783;BME280;10051;40.294;-3.754;2023-02-01T04:34:30;95030.22;;;1.99;71.99
19783;BME280;10051;40.294;-3.754;2023-02-01T04:36:56;94989.94;;;1.83;71.21
19783;BME280;10051;40.294;-3.754;2023-02-01T04:39:21;95082.78;;;2.60;70.37
19783;BME280;10051;40.294;-3.754;2023-02-01T04:41:47;95019.75;;;2.33;70.24
19783;BME280;10051;40.294;-3.754;2023-02-01T04:44:17;95050.47;;;2.49;70.00
19783;BME280;10051;40.294;-3.754;2023-02-01T04:46:44;95071.34;;;2.68;69.47
19783;BME280;10051;40.294;-3.754;2023-02-01T04:49:10;94984.31;;;2.13;69.14
19783;BME280;10051;40.294;-3.754;2023-02-01T04:51:38;95017.75;;;2.42;68.70
19783;BME280;10051;40.294;-3.754;2023-02-01T04:54:03;95008.38;;;2.34;68.68
19783;BME280;10051;40.294;-3.754;2023-02-01T04:56:29;95084.53;;;2.73;68.50
19783;BME280;10051;40.294;-3.754;2023-02-01T04:58:55;95014.03;;;2.11;68.96
19783;BME280;10051;40.294;-3.754;2023-02-01T05:01:22;95033.97;;;2.17;69.46
19783;BME280;10051;40.294;-3.754;2023-02-01T05:03:48;95039.38;;;2.22;69.44
19783;BME280;10051;40.294;-3.754;2023-02-01T05:06:13;95024.19;;;2.19;70.08
19783;BME280;10051;40.294;-3.754;2023-02-01T05:08:39;95000.09;;;2.05;70.18
19783;BME280;10051;40.294;-3.754;2023-02-01T05:11:05;95029.75;;;2.29;70.13
19783;BME280;10051;40.294;-3.754;2023-02-01T05:13:31;95040.97;;;2.75;69.29
19783;BME280;10051;40.294;-3.754;2023-02-01T05:16:15;95051.84;;;2.97;68.10
19783;BME280;10051;40.294;-3.754;2023-02-01T05:18:41;95088.31;;;3.16;67.91
19783;BME280;10051;40.294;-3.754;2023-02-01T05:21:07;95055.41;;;3.03;67.13
19783;BME280;10051;40.294;-3.754;2023-02-01T05:23:32;95075.25;;;3.30;66.86
19783;BME280;10051;40.294;-3.754;2023-02-01T05:26:18;95044.56;;;3.13;67.00
19783;BME280;10051;40.294;-3.754;2023-02-01T05:28:44;95036.19;;;3.11;66.75
19783;BME280;10051;40.294;-3.754;2023-02-01T05:31:10;95056.72;;;3.19;67.54
19783;BME280;10051;40.294;-3.754;2023-02-01T05:33:36;95049.16;;;3.11;66.53
19783;BME280;10051;40.294;-3.754;2023-02-01T05:36:02;95076.50;;;3.20;67.53
19783;BME280;10051;40.294;-3.754;2023-02-01T05:38:28;95006.41;;;2.75;67.27
19783;BME280;10051;40.294;-3.754;2023-02-01T05:40:55;95067.28;;;3.24;67.48
19783;BME280;10051;40.294;-3.754;2023-02-01T05:43:21;95066.53;;;3.17;67.77
19783;BME280;10051;40.294;-3.754;2023-02-01T05:45:47;95072.66;;;3.30;67.78
19783;BME280;10051;40.294;-3.754;2023-02-01T05:48:13;94981.38;;;2.48;68.03
19783;BME280;10051;40.294;-3.754;2023-02-01T05:50:38;95049.56;;;2.69;68.34
19783;BME280;10051;40.294;-3.754;2023-02-01T05:53:04;95056.41;;;2.63;69.30
19783;BME280;10051;40.294;-3.754;2023-02-01T05:55:30;95060.94;;;2.75;69.11
19783;BME280;10051;40.294;-3.754;2023-02-01T05:57:55;95084.00;;;3.03;68.58
19783;BME280;10051;40.294;-3.754;2023-02-01T06:00:21;95040.63;;;2.65;68.44
19783;BME280;10051;40.294;-3.754;2023-02-01T06:02:47;95048.19;;;2.66;68.72
19783;BME280;10051;40.294;-3.754;2023-02-01T06:05:13;95091.84;;;2.90;68.93
19783;BME280;10051;40.294;-3.754;2023-02-01T06:07:39;94981.22;;;2.36;68.69
19783;BME280;10051;40.294;-3.754;2023-02-01T06:10:04;95081.41;;;2.96;68.41
19783;BME280;10051;40.294;-3.754;2023-02-01T06:12:30;95056.34;;;2.77;68.82
19783;BME280;10051;40.294;-3.754;2023-02-01T06:14:56;95067.59;;;2.64;69.20
19783;BME280;10051;40.294;-3.754;2023-02-01T06:17:21;95072.63;;;2.52;69.96
19783;BME280;10051;40.294;-3.754;2023-02-01T06:19:47;94982.16;;;1.83;70.43
19783;BME280;10051;40.294;-3.754;2023-02-01T06:22:14;95004.31;;;1.92;70.81
19783;BME280;10051;40.294;-3.754;2023-02-01T06:24:39;94980.44;;;1.63;71.60
19783;BME280;10051;40.294;-3.754;2023-02-01T06:27:06;95056.16;;;2.13;72.00
19783;BME280;10051;40.294;-3.754;2023-02-01T06:29:32;95052.97;;;2.11;71.47
19783;BME280;10051;40.294;-3.754;2023-02-01T06:31:58;95001.53;;;1.81;71.39
19783;BME280;10051;40.294;-3.754;2023-02-01T06:34:24;95047.38;;;2.07;71.07
19783;BME280;10051;40.294;-3.754;2023-02-01T06:36:50;95025.03;;;1.99;71.05
19783;BME280;10051;40.294;-3.754;2023-02-01T06:39:15;95095.63;;;2.42;71.48
19783;BME280;10051;40.294;-3.754;2023-02-01T06:41:48;95043.44;;;1.91;71.08
19783;BME280;10051;40.294;-3.754;2023-02-01T06:44:14;95042.22;;;1.93;71.12
19783;BME280;10051;40.294;-3.754;2023-02-01T06:46:40;95007.13;;;1.77;70.92
19783;BME280;10051;40.294;-3.754;2023-02-01T06:49:05;94965.69;;;1.37;71.41
19783;BME280;10051;40.294;-3.754;2023-02-01T06:51:31;95066.94;;;2.10;70.78
19783;BME280;10051;40.294;-3.754;2023-02-01T06:53:57;95111.59;;;2.32;71.61
19783;BME280;10051;40.294;-3.754;2023-02-01T06:56:23;95076.34;;;1.97;71.34
19783;BME280;10051;40.294;-3.754;2023-02-01T06:58:49;94980.84;;;1.47;71.53
19783;BME280;10051;40.294;-3.754;2023-02-01T07:01:15;95032.88;;;1.72;71.77
19783;BME280;10051;40.294;-3.754;2023-02-01T07:03:41;95012.94;;;1.53;71.44
19783;BME280;10051;40.294;-3.754;2023-02-01T07:06:07;94991.63;;;1.51;71.09
19783;BME280;10051;40.294;-3.754;2023-02-01T07:08:35;95117.94;;;2.56;70.54
19783;BME280;10051;40.294;-3.754;2023-02-01T07:11:06;95002.34;;;1.74;70.14
19783;BME280;10051;40.294;-3.754;2023-02-01T07:13:32;95027.25;;;1.96;70.39
19783;BME280;10051;40.294;-3.754;2023-02-01T07:16:02;95017.50;;;1.91;70.34
19783;BME280;10051;40.294;-3.754;2023-02-01T07:18:29;95040.19;;;2.16;70.19
19783;BME280;10051;40.294;-3.754;2023-02-01T07:20:55;95107.06;;;2.79;69.09
19783;BME280;10051;40.294;-3.754;2023-02-01T07:23:21;95107.94;;;2.66;70.29
19783;BME280;10051;40.294;-3.754;2023-02-01T07:25:47;95056.75;;;2.15;70.67
19783;BME280;10051;40.294;-3.754;2023-02-01T07:28:13;95063.13;;;2.05;71.15
19783;BME280;10051;40.294;-3.754;2023-02-01T07:30:39;95035.47;;;1.72;72.00
19783;BME280;10051;40.294;-3.754;2023-02-01T07:33:04;95081.31;;;1.99;72.42
19783;BME280;10051;40.294;-3.754;2023-02-01T07:35:30;95046.03;;;1.71;72.91
19783;BME280;10051;40.294;-3.754;2023-02-01T07:37:57;95128.41;;;2.02;73.41
19783;BME280;10051;40.294;-3.754;2023-02-01T07:40:23;95122.06;;;1.98;74.00
19783;BME280;10051;40.294;-3.754;2023-02-01T07:42:55;95012.75;;;1.27;74.05
19783;BME280;10051;40.294;-3.754;2023-02-01T07:45:21;94898.53;;;0.68;73.66
19783;BME280;10051;40.294;-3.754;2023-02-01T07:47:47;95036.25;;;1.66;72.79
19783;BME280;10051;40.294;-3.754;2023-02-01T07:50:12;94958.53;;;1.32;72.29
19783;BME280;10051;40.294;-3.754;2023-02-01T07:52:38;95010.31;;;1.66;72.65
19783;BME280;10051;40.294;-3.754;2023-02-01T07:55:05;94985.19;;;1.60;72.26
19783;BME280;10051;40.294;-3.754;2023-02-01T07:57:31;95108.41;;;2.36;72.03
19783;BME280;10051;40.294;-3.754;2023-02-01T07:59:57;95126.69;;;2.68;71.91
19783;BME280;10051;40.294;-3.754;2023-02-01T08:02:41;95033.34;;;2.28;71.42
19783;BME280;10051;40.294;-3.754;2023-02-01T08:05:07;95066.78;;;2.63;71.05
19783;BME280;10051;40.294;-3.754;2023-02-01T08:07:33;95013.75;;;2.39;70.11
19783;BME280;10051;40.294;-3.754;2023-02-01T08:09:59;95125.91;;;3.20;69.99
19783;BME280;10051;40.294;-3.754;2023-02-01T08:12:25;95052.75;;;2.78;69.98
19783;BME280;10051;40.294;-3.754;2023-02-01T08:14:52;95100.09;;;3.19;70.27
19783;BME280;10051;40.294;-3.754;2023-02-01T08:17:19;95107.41;;;3.35;69.39
19783;BME280;10051;40.294;-3.754;2023-02-01T08:19:44;95051.19;;;3.09;69.47
19783;BME280;10051;40.294;-3.754;2023-02-01T08:22:10;95145.41;;;3.68;69.22
19783;BME280;10051;40.294;-3.754;2023-02-01T08:24:36;95065.75;;;3.10;69.05
19783;BME280;10051;40.294;-3.754;2023-02-01T08:27:04;95132.06;;;3.58;69.10
19783;BME280;10051;40.294;-3.754;2023-02-01T08:29:30;95071.91;;;3.22;69.04
19783;BME280;10051;40.294;-3.754;2023-02-01T08:31:56;95155.16;;;4.05;67.64
19783;BME280;10051;40.294;-3.754;2023-02-01T08:34:21;95151.13;;;4.09;66.85
19783;BME280;10051;40.294;-3.754;2023-02-01T08:36:47;95076.69;;;3.76;66.36
19783;BME280;10051;40.294;-3.754;2023-02-01T08:39:13;94999.59;;;3.38;66.22
19783;BME280;10051;40.294;-3.754;2023-02-01T08:41:39;95130.31;;;4.28;65.56
19783;BME280;10051;40.294;-3.754;2023-02-01T08:44:05;95015.31;;;3.75;64.55
19783;BME280;10051;40.294;-3.754;2023-02-01T08:46:30;95131.53;;;4.51;65.01
19783;BME280;10051;40.294;-3.754;2023-02-01T08:48:56;95031.75;;;3.94;64.18
19783;BME280;10051;40.294;-3.754;2023-02-01T08:51:23;95065.59;;;4.13;64.73
19783;BME280;10051;40.294;-3.754;2023-02-01T08:53:49;95185.09;;;5.02;63.24
19783;BME280;10051;40.294;-3.754;2023-02-01T08:56:18;95161.66;;;5.02;63.46
19783;BME280;10051;40.294;-3.754;2023-02-01T08:58:44;95061.63;;;4.47;62.19
19783;BME280;10051;40.294;-3.754;2023-02-01T09:01:13;95150.31;;;5.09;62.69
19783;BME280;10051;40.294;-3.754;2023-02-01T09:03:40;95193.78;;;5.15;62.82
19783;BME280;10051;40.294;-3.754;2023-02-01T09:06:08;95187.69;;;5.40;62.24
19783;BME280;10051;40.294;-3.754;2023-02-01T09:08:35;95176.56;;;5.44;61.17
19783;BME280;10051;40.294;-3.754;2023-02-01T09:11:02;95113.66;;;5.22;60.51
19783;BME280;10051;40.294;-3.754;2023-02-01T09:13:28;95114.13;;;5.31;60.32
19783;BME280;10051;40.294;-3.754;2023-02-01T09:15:54;95148.25;;;5.48;60.24
19783;BME280;10051;40.294;-3.754;2023-02-01T09:18:20;95115.13;;;5.48;60.06
19783;BME280;10051;40.294;-3.754;2023-02-01T09:20:46;95151.63;;;5.79;60.08
19783;BME280;10051;40.294;-3.754;2023-02-01T09:23:12;95189.63;;;6.05;60.38
19783;BME280;10051;40.294;-3.754;2023-02-01T09:25:38;95163.56;;;5.99;59.32
19783;BME280;10051;40.294;-3.754;2023-02-01T09:28:04;95200.41;;;6.21;60.14
19783;BME280;10051;40.294;-3.754;2023-02-01T09:30:32;95171.78;;;6.02;59.96
19783;BME280;10051;40.294;-3.754;2023-02-01T09:32:58;95052.63;;;5.42;58.87
19783;BME280;10051;40.294;-3.754;2023-02-01T09:35:23;95156.00;;;5.66;60.02
19783;BME280;10051;40.294;-3.754;2023-02-01T09:37:49;95199.63;;;6.20;59.87
19783;BME280;10051;40.294;-3.754;2023-02-01T09:40:15;95082.72;;;5.68;59.00
19783;BME280;10051;40.294;-3.754;2023-02-01T09:42:56;95204.09;;;6.67;58.82
19783;BME280;10051;40.294;-3.754;2023-02-01T09:48:29;95194.31;;;6.75;58.26
19783;BME280;10051;40.294;-3.754;2023-02-01T09:50:58;95213.63;;;6.85;57.95
19783;BME280;10051;40.294;-3.754;2023-02-01T09:53:33;95223.75;;;6.94;57.30
19783;BME280;10051;40.294;-3.754;2023-02-01T09:56:05;95220.44;;;6.98;57.49
19783;BME280;10051;40.294;-3.754;2023-02-01T09:58:52;95221.47;;;7.09;56.96
19783;BME280;10051;40.294;-3.754;2023-02-01T10:01:21;95160.13;;;6.76;57.81
19783;BME280;10051;40.294;-3.754;2023-02-01T10:03:49;95218.69;;;7.28;56.76
19783;BME280;10051;40.294;-3.754;2023-02-01T10:09:12;95189.81;;;7.23;56.29
19783;BME280;10051;40.294;-3.754;2023-02-01T10:12:13;95215.84;;;7.70;55.63
19783;BME280;10051;40.294;-3.754;2023-02-01T10:17:29;95221.25;;;7.81;54.73
19783;BME280;10051;40.294;-3.754;2023-02-01T10:20:23;95224.56;;;7.76;55.41
19783;BME280;10051;40.294;-3.754;2023-02-01T10:25:56;95222.94;;;7.58;56.10
19783;BME280;10051;40.294;-3.754;2023-02-01T10:28:26;95216.41;;;7.61;56.13
19783;BME280;10051;40.294;-3.754;2023-02-01T10:30:54;95217.44;;;7.71;55.71
19783;BME280;10051;40.294;-3.754;2023-02-01T10:33:30;95143.34;;;7.30;55.14
19783;BME280;10051;40.294;-3.754;2023-02-01T10:38:44;95196.25;;;7.90;54.21
19783;BME280;10051;40.294;-3.754;2023-02-01T10:41:15;95226.13;;;8.06;54.13
19783;BME280;10051;40.294;-3.754;2023-02-01T10:43:43;95188.22;;;7.80;54.12
19783;BME280;10051;40.294;-3.754;2023-02-01T10:46:10;95233.06;;;8.12;53.78
19783;BME280;10051;40.294;-3.754;2023-02-01T10:48:37;95180.56;;;7.90;53.40
19783;BME280;10051;40.294;-3.754;2023-02-01T10:51:08;95228.47;;;8.19;53.09
19783;BME280;10051;40.294;-3.754;2023-02-01T10:56:10;95145.06;;;7.65;52.77
19783;BME280;10051;40.294;-3.754;2023-02-01T10:58:44;95225.28;;;8.34;52.44
19783;BME280;10051;40.294;-3.754;2023-02-01T11:01:20;95177.16;;;8.07;52.03
19783;BME280;10051;40.294;-3.754;2023-02-01T11:04:00;95233.06;;;8.46;51.87
19783;BME280;10051;40.294;-3.754;2023-02-01T11:06:29;95231.38;;;8.52;51.87
19783;BME280;10051;40.294;-3.754;2023-02-01T11:08:57;95163.59;;;8.10;52.31
19783;BME280;10051;40.294;-3.754;2023-02-01T11:11:24;95145.56;;;8.13;51.17
19783;BME280;10051;40.294;-3.754;2023-02-01T11:13:56;95197.03;;;8.54;51.22
19783;BME280;10051;40.294;-3.754;2023-02-01T11:16:29;95227.06;;;8.80;50.54
19783;BME280;10051;40.294;-3.754;2023-02-01T11:18:55;95216.72;;;8.90;50.36
19783;BME280;10051;40.294;-3.754;2023-02-01T11:21:21;95220.28;;;8.84;50.44
19783;BME280;10051;40.294;-3.754;2023-02-01T11:23:47;95148.03;;;8.54;49.26
19783;BME280;10051;40.294;-3.754;2023-02-01T11:26:25;95081.44;;;8.16;49.63
19783;BME280;10051;40.294;-3.754;2023-02-01T11:29:01;95202.56;;;8.91;50.28
19783;BME280;10051;40.294;-3.754;2023-02-01T11:31:28;95154.66;;;8.79;49.17
19783;BME280;10051;40.294;-3.754;2023-02-01T11:34:16;95179.75;;;9.14;48.25
19783;BME280;10051;40.294;-3.754;2023-02-01T11:36:45;95183.72;;;9.39;48.34
19783;BME280;10051;40.294;-3.754;2023-02-01T11:44:38;95167.84;;;9.78;46.83
19783;BME280;10051;40.294;-3.754;2023-02-01T11:47:31;95188.59;;;10.07;46.20
19783;BME280;10051;40.294;-3.754;2023-02-01T11:50:18;95125.91;;;9.89;45.85
19783;BME280;10051;40.294;-3.754;2023-02-01T11:53:09;95184.00;;;10.25;45.47
19783;BME280;10051;40.294;-3.754;2023-02-01T11:55:59;95176.63;;;10.22;45.53
19783;BME280;10051;40.294;-3.754;2023-02-01T12:01:26;95160.00;;;10.49;45.18
19783;BME280;10051;40.294;-3.754;2023-02-01T12:06:51;95153.84;;;10.70;44.79
19783;BME280;10051;40.294;-3.754;2023-02-01T12:15:04;95128.59;;;10.69;44.96
19783;BME280;10051;40.294;-3.754;2023-02-01T12:33:57;95108.75;;;11.10;43.63
19783;BME280;10051;40.294;-3.754;2023-02-01T12:36:41;95079.28;;;11.08;43.42
19783;BME280;10051;40.294;-3.754;2023-02-01T12:39:36;95097.81;;;11.49;43.10
19783;BME280;10051;40.294;-3.754;2023-02-01T12:42:18;95102.03;;;11.50;42.85
19783;BME280;10051;40.294;-3.754;2023-02-01T12:50:25;95064.34;;;11.34;43.15
19783;BME280;10051;40.294;-3.754;2023-02-01T12:52:54;95057.78;;;11.47;43.30
19783;BME280;10051;40.294;-3.754;2023-02-01T12:55:33;95081.47;;;11.73;42.65
19783;BME280;10051;40.294;-3.754;2023-02-01T13:00:43;95001.66;;;11.62;42.16
19783;BME280;10051;40.294;-3.754;2023-02-01T13:06:15;95074.63;;;12.29;41.42
19783;BME280;10051;40.294;-3.754;2023-02-01T13:11:31;95043.28;;;12.32;40.95
19783;BME280;10051;40.294;-3.754;2023-02-01T13:14:10;95037.69;;;12.49;40.85
19783;BME280;10051;40.294;-3.754;2023-02-01T13:16:41;95053.00;;;12.42;40.44
19783;BME280;10051;40.294;-3.754;2023-02-01T13:19:13;95053.53;;;12.29;40.62
19783;BME280;10051;40.294;-3.754;2023-02-01T13:21:46;95046.44;;;12.29;40.42
19783;BME280;10051;40.294;-3.754;2023-02-01T13:24:44;95042.22;;;12.33;41.23
19783;BME280;10051;40.294;-3.754;2023-02-01T13:27:12;95046.66;;;12.43;40.38
19783;BME280;10051;40.294;-3.754;2023-02-01T13:36:04;95027.06;;;12.60;40.25
19783;BME280;10051;40.294;-3.754;2023-02-01T13:41:39;95022.78;;;12.79;40.02
19783;BME280;10051;40.294;-3.754;2023-02-01T13:44:15;94999.31;;;12.78;39.64
19783;BME280;10051;40.294;-3.754;2023-02-01T13:46:46;95016.91;;;12.98;39.29
19783;BME280;10051;40.294;-3.754;2023-02-01T13:49:23;95021.41;;;12.92;39.25
19783;BME280;10051;40.294;-3.754;2023-02-01T13:51:53;95006.84;;;13.00;39.39
19783;BME280;10051;40.294;-3.754;2023-02-01T13:54:30;95002.38;;;12.96;39.14
19783;BME280;10051;40.294;-3.754;2023-02-01T13:56:58;94974.75;;;12.83;38.94
19783;BME280;10051;40.294;-3.754;2023-02-01T14:03:06;94999.69;;;13.06;38.89
19783;BME280;10051;40.294;-3.754;2023-02-01T14:10:57;94992.38;;;12.87;39.53
19783;BME280;10051;40.294;-3.754;2023-02-01T14:13:31;95002.03;;;13.07;39.24
19783;BME280;10051;40.294;-3.754;2023-02-01T14:18:58;94999.63;;;13.16;39.44
19783;BME280;10051;40.294;-3.754;2023-02-01T14:21:32;94949.31;;;12.97;39.09
19783;BME280;10051;40.294;-3.754;2023-02-01T14:26:51;94978.00;;;13.14;38.54
19783;BME280;10051;40.294;-3.754;2023-02-01T14:32:19;94979.97;;;13.33;38.42
19783;BME280;10051;40.294;-3.754;2023-02-01T14:39:53;94972.81;;;13.38;38.46
19783;BME280;10051;40.294;-3.754;2023-02-01T14:47:52;94957.09;;;13.58;38.26
19783;BME280;10051;40.294;-3.754;2023-02-01T15:00:58;94971.75;;;13.39;38.25
19783;BME280;10051;40.294;-3.754;2023-02-01T15:06:24;94962.66;;;13.51;38.04
19783;BME280;10051;40.294;-3.754;2023-02-01T15:08:58;94934.28;;;13.32;38.07
19783;BME280;10051;40.294;-3.754;2023-02-01T15:11:25;94959.31;;;13.40;38.42
19783;BME280;10051;40.294;-3.754;2023-02-01T15:13:52;94915.69;;;13.13;38.46
19783;BME280;10051;40.294;-3.754;2023-02-01T15:16:24;94908.50;;;13.19;38.14
19783;BME280;10051;40.294;-3.754;2023-02-01T15:18:50;94955.94;;;13.34;37.51
19783;BME280;10051;40.294;-3.754;2023-02-01T15:21:21;94932.28;;;13.14;38.04
19783;BME280;10051;40.294;-3.754;2023-02-01T15:23:47;94957.09;;;13.18;38.35
19783;BME280;10051;40.294;-3.754;2023-02-01T15:26:30;94945.47;;;13.19;38.14
19783;BME280;10051;40.294;-3.754;2023-02-01T15:28:58;94934.69;;;13.15;37.36